createdAt,value
2019-02-16T00:00:16.628Z,-1.00
2019-02-16T00:02:45.051Z,-1.10
2019-02-16T00:05:13.485Z,-1.10
2019-02-16T00:07:41.905Z,-1.10
2019-02-16T00:10:10.421Z,-1.20
2019-02-16T00:12:39.239Z,-1.20
2019-02-16T00:15:08.614Z,-1.20
2019-02-16T00:17:37.035Z,-1.20
2019-02-16T00:20:08.098Z,-1.10
2019-02-16T00:22:36.518Z,-1.10
2019-02-16T00:25:05.835Z,-1.10
2019-02-16T00:27:34.263Z,-1.20
2019-02-16T00:30:02.868Z,-1.20
2019-02-16T00:32:31.279Z,-1.20
2019-02-16T00:34:59.724Z,-1.30
2019-02-16T00:37:28.132Z,-1.30
2019-02-16T00:39:56.569Z,-1.30
2019-02-16T00:42:25.028Z,-1.40
2019-02-16T00:44:53.502Z,-1.40
2019-02-16T00:47:21.927Z,-1.50
2019-02-16T00:49:50.353Z,-1.50
2019-02-16T00:52:18.779Z,-1.60
2019-02-16T00:54:47.211Z,-1.60
2019-02-16T00:57:15.648Z,-1.50
2019-02-16T00:59:44.086Z,-1.50
2019-02-16T01:02:12.548Z,-1.50
2019-02-16T01:04:41.003Z,-1.60
2019-02-16T01:07:09.434Z,-1.50
2019-02-16T01:09:37.852Z,-1.50
2019-02-16T01:12:06.311Z,-1.50
2019-02-16T01:14:34.734Z,-1.60
2019-02-16T01:17:03.176Z,-1.60
2019-02-16T01:19:31.592Z,-1.70
2019-02-16T01:22:00.033Z,-1.70
2019-02-16T01:24:28.447Z,-1.70
2019-02-16T01:26:56.890Z,-1.70
2019-02-16T01:29:25.312Z,-1.60
2019-02-16T01:31:53.759Z,-1.70
2019-02-16T01:34:22.215Z,-1.70
2019-02-16T01:36:50.649Z,-1.70
2019-02-16T01:39:19.080Z,-1.70
2019-02-16T01:41:47.921Z,-1.70
2019-02-16T01:44:16.454Z,-1.80
2019-02-16T01:46:44.876Z,-1.70
2019-02-16T01:49:13.355Z,-1.70
2019-02-16T01:51:41.802Z,-1.80
2019-02-16T01:54:10.218Z,-1.80
2019-02-16T01:56:38.663Z,-1.80
2019-02-16T01:59:07.071Z,-1.70
2019-02-16T02:01:35.519Z,-1.70
2019-02-16T02:04:04.025Z,-1.70
2019-02-16T02:06:32.458Z,-1.80
2019-02-16T02:09:00.874Z,-1.80
2019-02-16T02:11:29.360Z,-1.90
2019-02-16T02:13:57.815Z,-1.90
2019-02-16T02:16:26.478Z,-1.90
2019-02-16T02:18:54.954Z,-1.90
2019-02-16T02:21:23.373Z,-1.90
2019-02-16T02:23:51.811Z,-1.90
2019-02-16T02:26:20.244Z,-1.90
2019-02-16T02:28:48.675Z,-2.00
2019-02-16T02:31:17.118Z,-2.10
2019-02-16T02:33:45.531Z,-2.10
2019-02-16T02:36:13.961Z,-2.10
2019-02-16T02:38:42.405Z,-2.10
2019-02-16T02:41:10.842Z,-2.10
2019-02-16T02:43:39.287Z,-2.20
2019-02-16T02:46:07.703Z,-2.20
2019-02-16T02:48:36.151Z,-2.20
2019-02-16T02:51:04.577Z,-2.10
2019-02-16T02:53:33.005Z,-2.10
2019-02-16T02:56:01.427Z,-2.10
2019-02-16T02:58:29.881Z,-2.10
2019-02-16T03:00:58.317Z,-2.10
2019-02-16T03:03:26.750Z,-2.00
2019-02-16T03:05:55.208Z,-2.00
2019-02-16T03:08:23.645Z,-2.10
2019-02-16T03:10:52.075Z,-2.10
2019-02-16T03:13:20.499Z,-2.20
2019-02-16T03:15:48.936Z,-2.20
2019-02-16T03:18:17.352Z,-2.20
2019-02-16T03:20:45.802Z,-2.20
2019-02-16T03:23:18.392Z,-2.10
2019-02-16T03:25:49.918Z,-2.20
2019-02-16T03:28:21.419Z,-2.20
2019-02-16T03:30:58.451Z,-2.30
2019-02-16T03:33:29.945Z,-2.30
2019-02-16T03:36:25.107Z,-2.30
2019-02-16T03:38:56.925Z,-2.40
2019-02-16T03:41:25.369Z,-2.40
2019-02-16T03:43:53.783Z,-2.40
2019-02-16T03:46:22.204Z,-2.40
2019-02-16T03:48:50.678Z,-2.40
2019-02-16T03:51:19.087Z,-2.40
2019-02-16T03:53:47.521Z,-2.40
2019-02-16T03:56:15.932Z,-2.40
2019-02-16T03:58:44.388Z,-2.30
2019-02-16T04:01:12.807Z,-2.30
2019-02-16T04:03:41.243Z,-2.30
2019-02-16T04:06:09.671Z,-2.30
2019-02-16T04:08:38.108Z,-2.40
2019-02-16T04:11:06.530Z,-2.40
2019-02-16T04:13:34.975Z,-2.40
2019-02-16T04:16:03.412Z,-2.40
2019-02-16T04:18:31.851Z,-2.40
2019-02-16T04:21:02.440Z,-2.40
2019-02-16T04:23:30.872Z,-2.50
2019-02-16T04:25:59.296Z,-2.50
2019-02-16T04:28:27.727Z,-2.60
2019-02-16T04:30:56.430Z,-2.70
2019-02-16T04:33:24.878Z,-2.80
2019-02-16T04:35:53.303Z,-2.70
2019-02-16T04:38:21.766Z,-2.60
2019-02-16T04:40:50.193Z,-2.60
2019-02-16T04:43:18.620Z,-2.60
2019-02-16T04:45:47.250Z,-2.60
2019-02-16T04:48:15.700Z,-2.60
2019-02-16T04:50:44.154Z,-2.70
2019-02-16T04:53:12.596Z,-2.70
2019-02-16T04:55:41.032Z,-2.70
2019-02-16T04:58:09.456Z,-2.70
2019-02-16T05:00:37.925Z,-2.80
2019-02-16T05:03:06.351Z,-2.80
2019-02-16T05:05:34.786Z,-2.80
2019-02-16T05:08:03.222Z,-2.90
2019-02-16T05:10:31.671Z,-2.90
2019-02-16T05:13:00.099Z,-2.90
2019-02-16T05:15:28.528Z,-2.90
2019-02-16T05:17:56.958Z,-2.90
2019-02-16T05:20:25.391Z,-2.90
2019-02-16T05:22:53.835Z,-2.90
2019-02-16T05:25:22.269Z,-2.80
2019-02-16T05:27:50.679Z,-2.90
2019-02-16T05:30:19.132Z,-2.80
2019-02-16T05:32:47.562Z,-2.80
2019-02-16T05:35:16.022Z,-2.70
2019-02-16T05:37:45.355Z,-2.90
2019-02-16T05:40:13.781Z,-2.90
2019-02-16T05:42:42.215Z,-2.90
2019-02-16T05:45:10.640Z,-2.90
2019-02-16T05:47:39.079Z,-3.00
2019-02-16T05:50:07.739Z,-3.00
2019-02-16T05:52:36.166Z,-3.00
2019-02-16T05:55:04.880Z,-3.10
2019-02-16T05:57:33.310Z,-3.10
2019-02-16T06:00:01.734Z,-3.10
2019-02-16T06:02:30.234Z,-3.00
2019-02-16T06:04:58.668Z,-3.10
2019-02-16T06:07:27.113Z,-3.10
2019-02-16T06:09:55.572Z,-3.10
2019-02-16T06:12:24.010Z,-3.20
2019-02-16T06:14:53.380Z,-3.20
2019-02-16T06:17:21.836Z,-3.20
2019-02-16T06:19:50.265Z,-3.20
2019-02-16T06:22:20.617Z,-3.20
2019-02-16T06:24:49.124Z,-3.20
2019-02-16T06:27:17.539Z,-3.10
2019-02-16T06:29:45.979Z,-3.20
2019-02-16T06:32:20.497Z,-3.20
2019-02-16T06:34:50.560Z,-3.20
2019-02-16T06:37:20.617Z,-3.20
2019-02-16T06:39:49.686Z,-3.30
2019-02-16T06:42:19.235Z,-3.30
2019-02-16T06:44:47.656Z,-3.30
2019-02-16T06:47:16.092Z,-3.20
2019-02-16T06:49:44.514Z,-3.20
2019-02-16T06:52:12.952Z,-3.20
2019-02-16T06:54:42.310Z,-3.20
2019-02-16T06:57:14.998Z,-3.20
2019-02-16T06:59:43.428Z,-3.20
2019-02-16T07:02:12.312Z,-3.20
2019-02-16T07:04:40.739Z,-3.20
2019-02-16T07:07:09.153Z,-3.20
2019-02-16T07:09:37.592Z,-3.10
2019-02-16T07:12:06.026Z,-3.10
2019-02-16T07:14:35.376Z,-3.10
2019-02-16T07:17:06.408Z,-3.10
2019-02-16T07:19:36.491Z,-3.10
2019-02-16T07:22:04.979Z,-3.10
2019-02-16T07:24:33.438Z,-3.00
2019-02-16T07:27:01.852Z,-3.00
2019-02-16T07:29:30.294Z,-3.00
2019-02-16T07:31:58.719Z,-2.90
2019-02-16T07:34:27.179Z,-2.90
2019-02-16T07:36:55.625Z,-2.80
2019-02-16T07:39:24.041Z,-2.80
2019-02-16T07:41:52.475Z,-2.70
2019-02-16T07:44:28.647Z,-2.70
2019-02-16T07:47:01.831Z,-2.70
2019-02-16T07:49:34.662Z,-2.60
2019-02-16T07:52:04.738Z,-2.60
2019-02-16T07:54:34.819Z,-2.50
2019-02-16T07:57:04.961Z,-2.40
2019-02-16T07:59:35.023Z,-2.50
2019-02-16T08:02:05.139Z,-2.20
2019-02-16T08:04:37.686Z,-1.40
2019-02-16T08:07:07.763Z,-0.40
2019-02-16T08:09:40.837Z,0.30
2019-02-16T08:12:10.915Z,0.90
2019-02-16T08:14:49.694Z,1.40
2019-02-16T08:17:22.490Z,1.70
2019-02-16T08:20:01.034Z,2.40
2019-02-16T08:22:47.101Z,2.70
2019-02-16T08:25:29.162Z,2.80
2019-02-16T08:27:59.242Z,2.50
2019-02-16T08:30:29.324Z,2.30
2019-02-16T08:33:14.282Z,2.60
2019-02-16T08:35:47.187Z,2.60
2019-02-16T08:38:20.051Z,2.60
2019-02-16T08:40:58.947Z,2.70
2019-02-16T08:43:29.215Z,2.60
2019-02-16T08:46:14.146Z,2.50
2019-02-16T08:48:44.232Z,2.40
2019-02-16T08:51:30.551Z,2.70
2019-02-16T08:54:15.416Z,3.50
2019-02-16T08:56:48.055Z,4.60
2019-02-16T08:59:18.104Z,5.50
2019-02-16T09:01:50.069Z,5.10
2019-02-16T09:04:22.907Z,5.10
2019-02-16T09:06:52.979Z,4.70
2019-02-16T09:09:39.277Z,4.70
2019-02-16T09:12:15.101Z,4.90
2019-02-16T09:14:47.836Z,6.00
2019-02-16T09:17:27.977Z,6.30
2019-02-16T09:19:58.053Z,6.60
2019-02-16T09:22:37.189Z,7.20
2019-02-16T09:25:14.283Z,7.00
2019-02-16T09:27:44.347Z,6.30
2019-02-16T09:30:14.467Z,6.00
2019-02-16T09:32:47.490Z,5.60
2019-02-16T09:35:17.532Z,6.10
2019-02-16T09:38:02.749Z,6.60
2019-02-16T09:40:44.676Z,6.90
2019-02-16T09:43:20.379Z,6.60
2019-02-16T09:45:56.451Z,6.50
2019-02-16T09:48:26.527Z,6.50
2019-02-16T09:51:12.696Z,6.80
2019-02-16T09:53:45.184Z,7.30
2019-02-16T09:56:15.243Z,7.50
2019-02-16T09:58:48.032Z,7.50
2019-02-16T10:01:34.084Z,7.80
2019-02-16T10:04:07.256Z,8.30
2019-02-16T10:06:46.044Z,8.20
2019-02-16T10:09:16.214Z,8.40
2019-02-16T10:11:46.363Z,8.60
2019-02-16T10:14:18.844Z,9.20
2019-02-16T10:17:05.152Z,8.70
2019-02-16T10:19:38.207Z,8.10
2019-02-16T10:22:19.891Z,8.00
2019-02-16T10:24:52.606Z,8.10
2019-02-16T10:27:22.665Z,8.70
2019-02-16T10:29:55.446Z,10.00
2019-02-16T10:32:34.476Z,10.70
2019-02-16T10:35:07.269Z,10.80
2019-02-16T10:37:37.322Z,11.10
2019-02-16T10:40:07.663Z,11.30
2019-02-16T10:42:40.614Z,11.20
2019-02-16T10:45:11.068Z,11.10
2019-02-16T10:47:44.228Z,11.10
2019-02-16T10:50:23.096Z,11.40
2019-02-16T10:53:02.019Z,11.50
2019-02-16T10:55:32.110Z,11.50
2019-02-16T10:58:04.871Z,11.90
2019-02-16T11:00:34.951Z,12.50
2019-02-16T11:03:05.003Z,12.50
2019-02-16T11:05:40.835Z,12.60
2019-02-16T11:08:13.797Z,12.30
2019-02-16T11:10:43.904Z,12.40
2019-02-16T11:13:30.300Z,12.50
2019-02-16T11:16:00.376Z,12.40
2019-02-16T11:18:39.403Z,12.60
2019-02-16T11:21:21.314Z,12.60
2019-02-16T11:23:51.385Z,12.50
2019-02-16T11:26:27.219Z,12.10
2019-02-16T11:29:13.016Z,11.90
2019-02-16T11:31:43.085Z,11.80
2019-02-16T11:34:28.956Z,11.70
2019-02-16T11:37:10.984Z,11.80
2019-02-16T11:39:43.577Z,12.00
2019-02-16T11:42:22.611Z,12.10
2019-02-16T11:44:55.394Z,12.10
2019-02-16T11:47:30.424Z,12.20
2019-02-16T11:50:00.839Z,12.30
2019-02-16T11:52:30.925Z,12.30
2019-02-16T11:55:03.953Z,12.40
2019-02-16T11:57:34.328Z,12.50
2019-02-16T12:00:09.041Z,12.70
2019-02-16T12:02:42.128Z,12.80
2019-02-16T12:05:14.635Z,12.80
2019-02-16T12:07:50.345Z,12.80
2019-02-16T12:10:20.421Z,12.80
2019-02-16T12:13:06.624Z,12.90
2019-02-16T12:15:42.455Z,12.90
2019-02-16T12:18:15.248Z,12.90
2019-02-16T12:20:48.346Z,13.10
2019-02-16T12:23:34.712Z,13.10
2019-02-16T12:26:21.097Z,13.20
2019-02-16T12:28:51.192Z,13.10
2019-02-16T12:31:24.379Z,13.20
2019-02-16T12:33:54.440Z,13.30
2019-02-16T12:36:24.508Z,13.40
2019-02-16T12:39:04.585Z,13.40
2019-02-16T12:41:44.503Z,13.40
2019-02-16T12:44:14.564Z,13.50
2019-02-16T12:46:59.671Z,13.70
2019-02-16T12:49:35.804Z,13.80
2019-02-16T12:52:05.858Z,13.80
2019-02-16T12:54:44.669Z,13.90
2019-02-16T12:57:14.735Z,13.90
2019-02-16T12:59:44.812Z,14.00
2019-02-16T13:02:20.632Z,14.10
2019-02-16T13:04:53.922Z,14.30
2019-02-16T13:07:35.794Z,14.30
2019-02-16T13:10:10.261Z,14.30
2019-02-16T13:12:43.047Z,14.30
2019-02-16T13:15:16.010Z,14.40
2019-02-16T13:17:51.737Z,14.40
2019-02-16T13:20:24.495Z,14.40
2019-02-16T13:22:57.016Z,14.30
2019-02-16T13:25:27.110Z,14.30
2019-02-16T13:28:13.401Z,14.20
2019-02-16T13:30:43.461Z,14.30
2019-02-16T13:33:16.621Z,14.30
2019-02-16T13:35:46.700Z,14.50
2019-02-16T13:38:16.756Z,14.50
2019-02-16T13:40:49.752Z,14.50
2019-02-16T13:43:19.808Z,14.60
2019-02-16T13:45:55.979Z,14.60
2019-02-16T13:48:26.031Z,14.70
2019-02-16T13:50:56.142Z,14.70
2019-02-16T13:53:32.164Z,14.80
2019-02-16T13:56:02.273Z,14.80
2019-02-16T13:58:32.343Z,14.90
2019-02-16T14:01:11.331Z,14.90
2019-02-16T14:03:44.104Z,14.90
2019-02-16T14:06:25.996Z,15.00
2019-02-16T14:08:56.058Z,15.00
2019-02-16T14:11:26.132Z,15.00
2019-02-16T14:14:02.223Z,15.00
2019-02-16T14:16:44.437Z,14.90
2019-02-16T14:19:12.868Z,14.90
2019-02-16T14:21:41.306Z,15.00
2019-02-16T14:24:09.723Z,15.00
2019-02-16T14:26:38.155Z,15.00
2019-02-16T14:29:07.508Z,15.00
2019-02-16T14:31:36.023Z,15.00
2019-02-16T14:34:04.441Z,15.10
2019-02-16T14:36:32.852Z,15.10
2019-02-16T14:39:02.935Z,15.10
2019-02-16T14:41:31.373Z,15.10
2019-02-16T14:43:59.814Z,15.10
2019-02-16T14:46:28.224Z,15.00
2019-02-16T14:48:56.662Z,15.00
2019-02-16T14:51:25.104Z,15.00
2019-02-16T14:53:53.946Z,15.00
2019-02-16T14:56:22.336Z,14.90
2019-02-16T14:58:50.767Z,14.90
2019-02-16T15:01:19.202Z,14.80
2019-02-16T15:03:47.634Z,14.80
2019-02-16T15:06:16.048Z,14.70
2019-02-16T15:08:44.459Z,14.70
2019-02-16T15:11:12.901Z,14.70
2019-02-16T15:13:41.327Z,14.70
2019-02-16T15:16:09.752Z,14.60
2019-02-16T15:18:38.166Z,14.60
2019-02-16T15:21:06.610Z,14.50
2019-02-16T15:23:35.025Z,14.50
2019-02-16T15:26:03.456Z,14.50
2019-02-16T15:28:31.855Z,14.40
2019-02-16T15:31:00.341Z,14.40
2019-02-16T15:33:28.767Z,14.30
2019-02-16T15:35:57.193Z,14.20
2019-02-16T15:38:25.606Z,14.20
2019-02-16T15:40:54.038Z,14.20
2019-02-16T15:43:22.456Z,14.10
2019-02-16T15:45:50.880Z,14.00
2019-02-16T15:48:19.295Z,14.00
2019-02-16T15:50:47.738Z,14.00
2019-02-16T15:53:16.153Z,13.80
2019-02-16T15:55:44.597Z,13.80
2019-02-16T15:58:13.035Z,13.70
2019-02-16T16:00:41.496Z,13.60
2019-02-16T16:03:09.972Z,13.40
2019-02-16T16:05:38.416Z,13.20
2019-02-16T16:08:14.483Z,13.00
2019-02-16T16:10:47.463Z,12.80
2019-02-16T16:13:20.207Z,12.60
2019-02-16T16:15:56.234Z,12.40
2019-02-16T16:18:31.781Z,12.30
2019-02-16T16:21:20.015Z,12.10
2019-02-16T16:24:02.211Z,11.90
2019-02-16T16:26:48.284Z,11.60
2019-02-16T16:29:30.203Z,11.40
2019-02-16T16:32:00.272Z,11.20
2019-02-16T16:34:33.283Z,11.10
2019-02-16T16:37:03.336Z,10.90
2019-02-16T16:39:36.066Z,10.70
2019-02-16T16:42:08.986Z,10.60
2019-02-16T16:44:39.063Z,10.50
2019-02-16T16:47:25.518Z,10.30
2019-02-16T16:50:04.406Z,10.20
2019-02-16T16:52:36.976Z,10.00
2019-02-16T16:55:13.350Z,9.80
2019-02-16T16:57:43.406Z,9.60
2019-02-16T17:00:31.470Z,9.60
2019-02-16T17:03:04.255Z,9.50
2019-02-16T17:05:34.313Z,9.50
2019-02-16T17:08:16.450Z,9.40
2019-02-16T17:10:46.521Z,9.30
2019-02-16T17:13:16.571Z,9.20
2019-02-16T17:15:46.641Z,9.10
2019-02-16T17:18:22.454Z,9.00
2019-02-16T17:20:55.575Z,8.90
2019-02-16T17:23:28.584Z,8.80
2019-02-16T17:25:58.657Z,8.70
2019-02-16T17:28:28.719Z,8.60
2019-02-16T17:31:14.756Z,8.40
2019-02-16T17:33:50.761Z,8.30
2019-02-16T17:36:23.243Z,8.20
2019-02-16T17:39:11.258Z,8.00
2019-02-16T17:41:41.323Z,7.80
2019-02-16T17:44:27.395Z,7.70
2019-02-16T17:47:12.487Z,7.60
2019-02-16T17:49:57.355Z,7.40
2019-02-16T17:52:29.932Z,7.30
2019-02-16T17:55:08.815Z,7.00
2019-02-16T17:57:38.881Z,6.80
2019-02-16T18:00:27.925Z,6.60
2019-02-16T18:03:00.624Z,6.50
2019-02-16T18:05:30.669Z,6.40
2019-02-16T18:08:12.544Z,6.40
2019-02-16T18:10:58.432Z,6.30
2019-02-16T18:13:37.379Z,6.30
2019-02-16T18:16:16.477Z,6.20
2019-02-16T18:18:46.524Z,6.10
2019-02-16T18:21:19.604Z,6.00
2019-02-16T18:23:55.333Z,5.90
2019-02-16T18:26:25.419Z,5.80
2019-02-16T18:28:57.937Z,5.70
2019-02-16T18:31:36.859Z,5.70
2019-02-16T18:34:15.641Z,5.60
2019-02-16T18:36:48.419Z,5.50
2019-02-16T18:39:18.472Z,5.20
2019-02-16T18:41:51.339Z,5.10
2019-02-16T18:44:24.340Z,5.10
2019-02-16T18:46:57.373Z,5.00
2019-02-16T18:49:43.790Z,4.90
2019-02-16T18:52:16.616Z,4.80
2019-02-16T18:54:48.768Z,4.90
2019-02-16T18:57:18.994Z,4.80
2019-02-16T18:59:52.139Z,4.70
2019-02-16T19:02:38.200Z,4.70
2019-02-16T19:05:08.828Z,4.70
2019-02-16T19:07:41.740Z,4.60
2019-02-16T19:10:17.635Z,4.50
2019-02-16T19:12:57.543Z,4.50
2019-02-16T19:15:30.473Z,4.40
2019-02-16T19:18:18.398Z,4.30
2019-02-16T19:20:48.447Z,4.20
2019-02-16T19:23:18.522Z,4.10
2019-02-16T19:25:54.278Z,4.00
2019-02-16T19:28:27.265Z,3.90
2019-02-16T19:31:09.516Z,3.80
2019-02-16T19:33:55.789Z,3.70
2019-02-16T19:36:28.767Z,3.70
2019-02-16T19:38:58.838Z,3.70
2019-02-16T19:41:31.551Z,3.60
2019-02-16T19:44:19.412Z,3.50
2019-02-16T19:46:55.147Z,3.50
2019-02-16T19:49:25.223Z,3.40
2019-02-16T19:52:11.344Z,3.30
2019-02-16T19:54:47.343Z,3.20
2019-02-16T19:57:26.366Z,3.10
2019-02-16T19:59:58.137Z,3.00
2019-02-16T20:02:44.360Z,2.90
2019-02-16T20:05:30.475Z,2.80
2019-02-16T20:08:15.395Z,2.80
2019-02-16T20:10:45.494Z,2.70
2019-02-16T20:13:15.603Z,2.80
2019-02-16T20:15:48.601Z,2.80
2019-02-16T20:18:18.656Z,2.70
2019-02-16T20:20:48.744Z,2.70
2019-02-16T20:23:35.167Z,2.70
2019-02-16T20:26:10.973Z,2.60
2019-02-16T20:28:41.054Z,2.60
2019-02-16T20:31:26.041Z,2.60
2019-02-16T20:33:58.852Z,2.50
2019-02-16T20:36:31.975Z,2.40
2019-02-16T20:39:04.975Z,2.40
2019-02-16T20:41:37.976Z,2.30
2019-02-16T20:44:08.112Z,2.20
2019-02-16T20:46:54.217Z,2.10
2019-02-16T20:49:27.249Z,2.10
2019-02-16T20:52:13.000Z,1.90
2019-02-16T20:54:54.851Z,1.80
2019-02-16T20:57:33.403Z,1.70
2019-02-16T21:00:12.269Z,1.70
2019-02-16T21:02:59.976Z,1.70
2019-02-16T21:05:46.250Z,1.80
2019-02-16T21:08:16.316Z,1.80
2019-02-16T21:10:49.072Z,1.90
2019-02-16T21:13:22.078Z,1.80
2019-02-16T21:15:54.810Z,1.70
2019-02-16T21:18:24.869Z,1.70
2019-02-16T21:21:01.288Z,1.70
2019-02-16T21:23:43.192Z,1.60
2019-02-16T21:26:13.259Z,1.60
2019-02-16T21:28:52.151Z,1.50
2019-02-16T21:31:28.300Z,1.40
2019-02-16T21:34:07.416Z,1.40
2019-02-16T21:36:37.490Z,1.30
2019-02-16T21:39:14.097Z,1.20
2019-02-16T21:41:58.967Z,1.10
2019-02-16T21:44:37.768Z,1.10
2019-02-16T21:47:10.414Z,1.00
2019-02-16T21:49:43.162Z,1.00
2019-02-16T21:52:29.271Z,1.00
2019-02-16T21:54:59.335Z,1.00
2019-02-16T21:57:35.108Z,1.00
2019-02-16T22:00:23.123Z,0.90
2019-02-16T22:02:58.338Z,0.90
2019-02-16T22:05:33.745Z,0.80
2019-02-16T22:08:06.465Z,0.70
2019-02-16T22:10:42.244Z,0.60
2019-02-16T22:13:10.664Z,0.60
2019-02-16T22:15:39.090Z,0.60
2019-02-16T22:18:07.500Z,0.60
2019-02-16T22:20:35.929Z,0.60
2019-02-16T22:23:04.340Z,0.60
2019-02-16T22:25:32.782Z,0.60
2019-02-16T22:28:01.261Z,0.50
2019-02-16T22:30:29.710Z,0.50
2019-02-16T22:32:58.133Z,0.50
2019-02-16T22:35:26.575Z,0.50
2019-02-16T22:37:54.991Z,0.40
2019-02-16T22:40:23.425Z,0.40
2019-02-16T22:42:54.785Z,0.30
2019-02-16T22:45:23.201Z,0.30
2019-02-16T22:47:51.636Z,0.30
2019-02-16T22:50:20.057Z,0.30
2019-02-16T22:52:48.511Z,0.30
2019-02-16T22:55:16.962Z,0.20
2019-02-16T22:57:45.390Z,0.20
2019-02-16T23:00:18.540Z,0.10
2019-02-16T23:02:47.043Z,0.10
2019-02-16T23:05:15.492Z,0.10
2019-02-16T23:07:44.879Z,0.00
2019-02-16T23:10:13.448Z,0.00
2019-02-16T23:12:41.886Z,0.00
2019-02-16T23:15:11.441Z,0.00
2019-02-16T23:17:39.866Z,0.00
2019-02-16T23:20:11.873Z,-0.10
2019-02-16T23:22:40.295Z,-0.10
2019-02-16T23:25:09.080Z,-0.20
2019-02-16T23:27:37.538Z,-0.30
2019-02-16T23:30:09.291Z,-0.30
2019-02-16T23:32:37.723Z,-0.40
2019-02-16T23:35:07.588Z,-0.40
2019-02-16T23:37:36.019Z,-0.40
2019-02-16T23:40:05.988Z,-0.50
2019-02-16T23:42:34.436Z,-0.50
2019-02-16T23:45:02.961Z,-0.50
2019-02-16T23:47:31.405Z,-0.50
2019-02-16T23:50:00.736Z,-0.50
2019-02-16T23:52:29.177Z,-0.50
2019-02-16T23:54:58.009Z,-0.60
2019-02-16T23:57:26.463Z,-0.50
2019-02-16T23:59:54.892Z,-0.60
